Time;durP1;ratioP1;P1;durP2;ratioP2;P2;SDS_P1;SDS_P2;PMS_P1;PMS_P2;Temp;Humidity;BMP_temperature;BMP_pressure;BME280_temperature;BME280_humidity;BME280_pressure;Samples;Min_cycle;Max_cycle;Signal;HPM_P1;HPM_P2
2024/04/12 00:02:02;;;;;;;1.85;1.30;;;;;;;;;;5548781;25;19992;-57
2024/04/12 00:04:28;;;;;;;3.78;1.45;;;;;;;;;;5525930;25;20056;-57
2024/04/12 00:06:59;;;;;;;2.75;1.42;;;;;;;;;;5553772;25;20394;-57
2024/04/12 00:09:29;;;;;;;3.13;1.63;;;;;;;;;;5556944;25;20004;-56
2024/04/12 00:11:55;;;;;;;3.00;1.30;;;;;;;;;;5525554;25;20004;-57
2024/04/12 00:14:24;;;;;;;3.50;1.58;;;;;;;;;;5524850;25;20433;-57
2024/04/12 00:16:52;;;;;;;3.72;1.52;;;;;;;;;;5561298;25;20008;-57
2024/04/12 00:19:18;;;;;;;2.70;1.48;;;;;;;;;;5562312;25;20005;-57
2024/04/12 00:21:46;;;;;;;6.57;1.60;;;;;;;;;;5551763;25;20008;-57
2024/04/12 00:24:13;;;;;;;2.13;1.23;;;;;;;;;;5558414;25;20003;-57
2024/04/12 00:26:46;;;;;;;2.38;1.10;;;;;;;;;;5552428;25;20097;-57
2024/04/12 00:29:31;;;;;;;2.65;1.30;;;;;;;;;;5553483;25;19993;-57
2024/04/12 00:32:05;;;;;;;2.78;1.23;;;;;;;;;;5531975;25;20013;-57
2024/04/12 00:34:37;;;;;;;3.00;1.10;;;;;;;;;;5524698;25;20016;-56
2024/04/12 00:37:07;;;;;;;2.53;1.55;;;;;;;;;;5525026;25;20001;-57
2024/04/12 00:39:36;;;;;;;2.58;1.33;;;;;;;;;;5529249;25;19993;-57
2024/04/12 00:42:11;;;;;;;3.70;1.13;;;;;;;;;;5545432;25;20446;-58
2024/04/12 00:44:40;;;;;;;2.45;1.23;;;;;;;;;;5533357;25;20495;-57
2024/04/12 00:47:15;;;;;;;4.55;1.95;;;;;;;;;;5552138;25;20001;-57
2024/04/12 00:49:49;;;;;;;3.42;1.30;;;;;;;;;;5546239;25;20012;-56
2024/04/12 00:52:15;;;;;;;3.95;1.23;;;;;;;;;;5524475;25;20012;-58
2024/04/12 00:54:42;;;;;;;3.35;1.77;;;;;;;;;;5524052;25;19998;-57
2024/04/12 00:57:09;;;;;;;6.57;1.45;;;;;;;;;;5554636;25;19998;-57
2024/04/12 00:59:36;;;;;;;2.00;1.20;;;;;;;;;;5522728;25;20001;-57
2024/04/12 01:02:08;;;;;;;3.08;1.65;;;;;;;;;;5527606;25;20080;-58
2024/04/12 01:04:34;;;;;;;2.40;1.20;;;;;;;;;;5523017;25;20065;-59
2024/04/12 01:07:01;;;;;;;3.35;1.52;;;;;;;;;;5524441;25;20433;-60
2024/04/12 01:09:28;;;;;;;3.50;1.40;;;;;;;;;;5526205;25;20341;-60
2024/04/12 01:11:59;;;;;;;1.88;1.20;;;;;;;;;;5549968;25;20521;-59
2024/04/12 01:14:25;;;;;;;2.28;1.17;;;;;;;;;;5529502;25;20047;-59
2024/04/12 01:16:54;;;;;;;5.43;1.30;;;;;;;;;;5524459;25;20441;-59
2024/04/12 01:19:20;;;;;;;6.50;1.55;;;;;;;;;;5528234;25;20401;-58
2024/04/12 01:21:47;;;;;;;2.17;1.25;;;;;;;;;;5524156;25;20017;-58
2024/04/12 01:24:16;;;;;;;3.40;1.10;;;;;;;;;;5544296;25;20332;-59
2024/04/12 01:26:44;;;;;;;6.30;1.40;;;;;;;;;;5527169;25;20016;-59
2024/04/12 01:29:10;;;;;;;6.28;1.52;;;;;;;;;;5524308;25;20047;-58
2024/04/12 01:31:38;;;;;;;2.67;1.35;;;;;;;;;;5524592;25;19994;-59
2024/04/12 01:34:13;;;;;;;2.92;1.38;;;;;;;;;;5523541;25;20001;-60
2024/04/12 01:36:39;;;;;;;5.97;1.40;;;;;;;;;;5522721;25;19994;-58
2024/04/12 01:39:11;;;;;;;6.50;1.60;;;;;;;;;;5541448;25;20012;-59
2024/04/12 01:41:38;;;;;;;2.37;1.20;;;;;;;;;;5540342;25;19989;-60
2024/04/12 01:44:06;;;;;;;2.25;1.25;;;;;;;;;;5523406;25;20499;-58
2024/04/12 01:46:35;;;;;;;3.50;1.50;;;;;;;;;;5524344;25;20429;-59
2024/04/12 01:49:05;;;;;;;3.33;1.33;;;;;;;;;;5552310;25;20016;-59
2024/04/12 01:51:34;;;;;;;6.03;1.40;;;;;;;;;;5551947;25;20012;-58
2024/04/12 01:54:04;;;;;;;2.05;1.20;;;;;;;;;;5535346;25;20406;-59
2024/04/12 01:56:31;;;;;;;4.15;1.48;;;;;;;;;;5527234;25;20421;-59
2024/04/12 01:58:59;;;;;;;2.00;1.25;;;;;;;;;;5552802;25;20041;-59
2024/04/12 02:01:26;;;;;;;3.53;1.52;;;;;;;;;;5553628;25;20033;-59
2024/04/12 02:03:53;;;;;;;4.18;1.30;;;;;;;;;;5532406;25;20449;-59
2024/04/12 02:06:19;;;;;;;3.55;1.48;;;;;;;;;;5527527;25;20016;-59
2024/04/12 02:08:48;;;;;;;4.32;1.17;;;;;;;;;;5527451;25;19998;-59
2024/04/12 02:11:22;;;;;;;1.70;1.02;;;;;;;;;;5544182;25;20005;-59
2024/04/12 02:13:48;;;;;;;4.45;1.38;;;;;;;;;;5529792;25;19998;-59
2024/04/12 02:16:15;;;;;;;3.90;1.52;;;;;;;;;;5552070;25;20007;-59
2024/04/12 02:18:44;;;;;;;5.50;1.45;;;;;;;;;;5543739;25;20333;-59
2024/04/12 02:21:10;;;;;;;4.18;1.42;;;;;;;;;;5527278;25;20005;-59
2024/04/12 02:23:37;;;;;;;2.95;1.15;;;;;;;;;;5557192;25;19997;-59
2024/04/12 02:26:04;;;;;;;5.65;1.33;;;;;;;;;;5532875;25;19998;-59
2024/04/12 02:28:30;;;;;;;3.00;1.10;;;;;;;;;;5533897;25;20431;-59
2024/04/12 02:31:01;;;;;;;2.30;1.40;;;;;;;;;;5539011;25;20074;-59
2024/04/12 02:33:32;;;;;;;2.67;1.52;;;;;;;;;;5554676;25;20672;-58
2024/04/12 02:36:11;;;;;;;2.88;1.05;;;;;;;;;;5551783;25;20006;-59
2024/04/12 02:38:38;;;;;;;2.42;1.35;;;;;;;;;;5544003;25;20401;-59
2024/04/12 02:41:05;;;;;;;5.80;1.35;;;;;;;;;;5526792;25;20069;-59
2024/04/12 02:43:32;;;;;;;2.80;1.60;;;;;;;;;;5535410;25;20465;-59
2024/04/12 02:45:58;;;;;;;3.83;1.58;;;;;;;;;;5526841;25;19997;-58
2024/04/12 02:48:24;;;;;;;2.85;1.52;;;;;;;;;;5537555;25;19997;-59
2024/04/12 02:50:53;;;;;;;2.55;1.20;;;;;;;;;;5561435;25;20341;-58
2024/04/12 02:53:24;;;;;;;5.13;1.27;;;;;;;;;;5543012;25;20333;-59
2024/04/12 02:56:03;;;;;;;3.70;1.40;;;;;;;;;;5555407;25;20033;-58
2024/04/12 02:58:38;;;;;;;2.47;1.70;;;;;;;;;;5528063;25;20016;-59
2024/04/12 03:01:04;;;;;;;5.25;1.60;;;;;;;;;;5529105;25;20013;-59
2024/04/12 03:03:30;;;;;;;2.35;1.10;;;;;;;;;;5526511;25;20098;-58
2024/04/12 03:06:00;;;;;;;1.80;1.20;;;;;;;;;;5541650;25;20016;-59
2024/04/12 03:08:26;;;;;;;4.03;1.63;;;;;;;;;;5552523;25;20020;-60
2024/04/12 03:10:57;;;;;;;3.97;1.40;;;;;;;;;;5527921;25;20443;-59
2024/04/12 03:13:23;;;;;;;3.60;1.73;;;;;;;;;;5526137;25;20012;-58
2024/04/12 03:15:49;;;;;;;4.22;1.48;;;;;;;;;;5526620;25;19993;-58
2024/04/12 03:18:15;;;;;;;8.23;1.65;;;;;;;;;;5560729;25;20001;-59
2024/04/12 03:20:41;;;;;;;5.38;2.13;;;;;;;;;;5526251;25;19998;-59
2024/04/12 03:23:07;;;;;;;5.00;1.80;;;;;;;;;;5532568;25;20389;-59
2024/04/12 03:25:38;;;;;;;5.15;1.63;;;;;;;;;;5532745;25;20009;-59
2024/04/12 03:28:04;;;;;;;5.43;2.13;;;;;;;;;;5533302;25;20424;-59
2024/04/12 03:30:31;;;;;;;6.18;1.90;;;;;;;;;;5540746;25;19996;-59
2024/04/12 03:33:02;;;;;;;2.80;1.70;;;;;;;;;;5525812;25;19993;-59
2024/04/12 03:35:33;;;;;;;4.10;1.80;;;;;;;;;;5526153;25;20000;-60
2024/04/12 03:40:45;;;;;;;4.15;2.33;;;;;;;;;;5546334;25;20060;-60
2024/04/12 03:43:11;;;;;;;14.90;2.03;;;;;;;;;;5540225;25;20008;-59
2024/04/12 03:45:37;;;;;;;4.55;1.88;;;;;;;;;;5525976;25;20069;-60
2024/04/12 03:48:13;;;;;;;3.17;1.80;;;;;;;;;;5543678;25;20348;-58
2024/04/12 03:50:41;;;;;;;4.50;2.28;;;;;;;;;;5560719;25;20441;-58
2024/04/12 03:53:16;;;;;;;6.15;1.88;;;;;;;;;;5552022;25;20402;-59
2024/04/12 03:55:45;;;;;;;4.15;2.58;;;;;;;;;;5536687;25;20370;-59
2024/04/12 03:58:17;;;;;;;5.00;2.08;;;;;;;;;;5531757;25;19997;-59
2024/04/12 04:00:43;;;;;;;6.35;2.53;;;;;;;;;;5525749;25;20001;-59
2024/04/12 04:03:10;;;;;;;7.85;3.05;;;;;;;;;;5529790;25;20016;-59
2024/04/12 04:05:36;;;;;;;4.20;2.90;;;;;;;;;;5550845;25;20032;-59
2024/04/12 04:08:02;;;;;;;5.43;2.65;;;;;;;;;;5540496;25;20081;-58
2024/04/12 04:10:30;;;;;;;5.93;2.72;;;;;;;;;;5536191;25;20003;-59
2024/04/12 04:12:56;;;;;;;4.38;2.55;;;;;;;;;;5534173;25;20009;-58
2024/04/12 04:15:25;;;;;;;6.18;3.15;;;;;;;;;;5539884;25;20080;-59
2024/04/12 04:17:51;;;;;;;6.68;2.97;;;;;;;;;;5535126;25;20001;-59
2024/04/12 04:20:17;;;;;;;4.05;2.53;;;;;;;;;;5547672;25;20064;-59
2024/04/12 04:22:49;;;;;;;3.88;2.40;;;;;;;;;;5539085;25;19993;-59
2024/04/12 04:25:19;;;;;;;5.28;2.63;;;;;;;;;;5551841;25;20008;-59
2024/04/12 04:27:45;;;;;;;4.65;2.53;;;;;;;;;;5560649;25;19993;-59
2024/04/12 04:30:17;;;;;;;5.93;3.10;;;;;;;;;;5551277;25;19993;-58
2024/04/12 04:32:46;;;;;;;9.07;2.80;;;;;;;;;;5534389;25;20106;-58
2024/04/12 04:35:13;;;;;;;4.85;2.78;;;;;;;;;;5551151;25;19993;-59
2024/04/12 04:37:39;;;;;;;6.82;2.08;;;;;;;;;;5548228;25;20501;-59
2024/04/12 04:40:16;;;;;;;5.55;2.83;;;;;;;;;;5561683;25;20024;-59
2024/04/12 04:42:45;;;;;;;6.88;2.58;;;;;;;;;;5546333;25;20066;-59
2024/04/12 04:45:17;;;;;;;5.60;2.90;;;;;;;;;;5540937;25;20007;-58
2024/04/12 04:47:44;;;;;;;7.10;3.30;;;;;;;;;;5556169;25;20017;-59
2024/04/12 04:50:10;;;;;;;6.53;3.40;;;;;;;;;;5549446;25;19997;-60
2024/04/12 04:52:37;;;;;;;6.97;2.78;;;;;;;;;;5548388;25;20078;-59
2024/04/12 04:55:06;;;;;;;4.70;3.00;;;;;;;;;;5538274;25;20317;-58
2024/04/12 04:57:35;;;;;;;5.63;2.67;;;;;;;;;;5553497;25;20001;-59
2024/04/12 05:00:08;;;;;;;4.72;2.70;;;;;;;;;;5545184;25;19998;-57
2024/04/12 05:02:34;;;;;;;8.73;3.17;;;;;;;;;;5549457;25;20001;-59
2024/04/12 05:05:04;;;;;;;6.22;3.50;;;;;;;;;;5526454;25;20009;-59
2024/04/12 05:07:34;;;;;;;6.75;3.70;;;;;;;;;;5543037;25;20069;-58
2024/04/12 05:10:08;;;;;;;6.40;3.20;;;;;;;;;;5529827;25;20041;-59
2024/04/12 05:12:34;;;;;;;5.22;3.20;;;;;;;;;;5539233;25;19997;-59
2024/04/12 05:15:05;;;;;;;10.57;3.72;;;;;;;;;;5537339;25;20004;-58
2024/04/12 05:17:31;;;;;;;6.25;3.90;;;;;;;;;;5534850;25;20452;-57
2024/04/12 05:19:57;;;;;;;8.07;3.30;;;;;;;;;;5528096;25;19993;-58
2024/04/12 05:22:22;;;;;;;7.85;4.07;;;;;;;;;;5529613;25;20091;-59
2024/04/12 05:24:52;;;;;;;6.88;3.78;;;;;;;;;;5531197;25;20042;-59
2024/04/12 05:27:18;;;;;;;9.80;4.57;;;;;;;;;;5542313;25;20329;-59
2024/04/12 05:29:45;;;;;;;8.07;4.55;;;;;;;;;;5555567;25;19996;-59
2024/04/12 05:32:12;;;;;;;9.85;4.47;;;;;;;;;;5543617;25;20441;-58
2024/04/12 05:34:40;;;;;;;7.45;4.15;;;;;;;;;;5530442;25;19994;-59
2024/04/12 05:37:08;;;;;;;6.05;3.88;;;;;;;;;;5543754;25;20004;-60
2024/04/12 05:39:35;;;;;;;6.68;3.55;;;;;;;;;;5549512;25;20073;-56
2024/04/12 05:42:01;;;;;;;6.93;3.22;;;;;;;;;;5547001;25;20001;-57
2024/04/12 05:44:27;;;;;;;8.23;3.80;;;;;;;;;;5524744;25;20006;-56
2024/04/12 05:46:53;;;;;;;7.93;3.72;;;;;;;;;;5554849;25;20423;-56
2024/04/12 05:49:20;;;;;;;11.27;4.13;;;;;;;;;;5555277;25;19997;-57
2024/04/12 05:51:49;;;;;;;9.48;4.93;;;;;;;;;;5533974;25;19993;-58
2024/04/12 05:54:15;;;;;;;9.93;4.28;;;;;;;;;;5531398;25;20013;-59
2024/04/12 05:56:44;;;;;;;9.57;4.72;;;;;;;;;;5545830;25;20001;-57
2024/04/12 05:59:13;;;;;;;10.68;4.25;;;;;;;;;;5533510;25;19993;-56
2024/04/12 06:01:43;;;;;;;6.47;4.18;;;;;;;;;;5547233;25;20007;-56
2024/04/12 06:04:10;;;;;;;11.00;3.80;;;;;;;;;;5542821;25;20005;-57
2024/04/12 06:06:36;;;;;;;6.13;3.50;;;;;;;;;;5537954;25;20003;-58
2024/04/12 06:09:05;;;;;;;7.97;4.28;;;;;;;;;;5539603;25;20407;-57
2024/04/12 06:11:31;;;;;;;8.35;4.07;;;;;;;;;;5534242;25;19994;-57
2024/04/12 06:14:01;;;;;;;8.10;3.97;;;;;;;;;;5540230;25;20094;-57
2024/04/12 06:16:27;;;;;;;9.10;4.28;;;;;;;;;;5533044;25;20398;-57
2024/04/12 06:18:58;;;;;;;7.25;3.58;;;;;;;;;;5527673;25;20013;-57
2024/04/12 06:21:23;;;;;;;7.35;3.25;;;;;;;;;;5529645;25;20027;-57
2024/04/12 06:23:54;;;;;;;8.82;4.30;;;;;;;;;;5545223;25;20037;-57
2024/04/12 06:26:22;;;;;;;5.65;3.50;;;;;;;;;;5541572;25;20028;-58
2024/04/12 06:28:48;;;;;;;6.32;3.97;;;;;;;;;;5542302;25;20329;-58
2024/04/12 06:31:19;;;;;;;5.72;3.70;;;;;;;;;;5543347;25;20001;-57
2024/04/12 06:33:46;;;;;;;9.75;4.05;;;;;;;;;;5539112;25;19997;-57
2024/04/12 06:36:13;;;;;;;6.72;3.45;;;;;;;;;;5545201;25;20456;-57
2024/04/12 06:38:39;;;;;;;8.88;4.40;;;;;;;;;;5539795;25;20445;-57
2024/04/12 06:41:10;;;;;;;8.95;3.42;;;;;;;;;;5534516;25;20048;-57
2024/04/12 06:43:37;;;;;;;6.07;3.53;;;;;;;;;;5538558;25;20333;-57
2024/04/12 06:46:09;;;;;;;7.28;3.55;;;;;;;;;;5541120;25;19996;-59
2024/04/12 06:48:36;;;;;;;8.13;3.70;;;;;;;;;;5541772;25;19997;-61
2024/04/12 06:51:05;;;;;;;8.52;4.20;;;;;;;;;;5531525;25;20005;-61
2024/04/12 06:53:32;;;;;;;10.55;3.88;;;;;;;;;;5530529;25;20012;-61
2024/04/12 06:56:06;;;;;;;12.60;4.68;;;;;;;;;;5525639;25;20065;-61
2024/04/12 06:58:32;;;;;;;12.68;5.25;;;;;;;;;;5551488;25;19993;-61
2024/04/12 07:00:59;;;;;;;7.43;4.57;;;;;;;;;;5536233;25;20317;-61
2024/04/12 07:03:25;;;;;;;11.70;5.70;;;;;;;;;;5526861;25;20037;-61
2024/04/12 07:05:54;;;;;;;13.13;5.45;;;;;;;;;;5528415;25;20020;-61
2024/04/12 07:08:26;;;;;;;11.55;5.22;;;;;;;;;;5562506;25;20004;-61
2024/04/12 07:10:53;;;;;;;9.30;5.10;;;;;;;;;;5534049;25;20008;-61
2024/04/12 07:13:26;;;;;;;9.10;4.82;;;;;;;;;;5545745;25;20020;-61
2024/04/12 07:15:55;;;;;;;9.40;5.10;;;;;;;;;;5524996;25;19998;-61
2024/04/12 07:18:22;;;;;;;6.75;4.13;;;;;;;;;;5525181;25;20341;-61
2024/04/12 07:20:48;;;;;;;15.23;6.07;;;;;;;;;;5524285;25;20043;-61
2024/04/12 07:23:15;;;;;;;10.10;5.05;;;;;;;;;;5526068;25;20011;-61
2024/04/12 07:25:45;;;;;;;9.07;5.28;;;;;;;;;;5531473;25;20009;-61
2024/04/12 07:28:14;;;;;;;10.65;5.60;;;;;;;;;;5528964;25;20006;-61
2024/04/12 07:30:44;;;;;;;8.40;4.55;;;;;;;;;;5526843;25;19997;-61
2024/04/12 07:33:12;;;;;;;9.35;5.53;;;;;;;;;;5555716;25;20326;-61
2024/04/12 07:35:39;;;;;;;10.23;4.65;;;;;;;;;;5550570;25;20449;-61
2024/04/12 07:38:07;;;;;;;11.15;5.65;;;;;;;;;;5562000;25;20012;-61
2024/04/12 07:40:34;;;;;;;8.60;5.47;;;;;;;;;;5560240;25;20072;-61
2024/04/12 07:43:08;;;;;;;8.70;5.57;;;;;;;;;;5531882;25;19997;-60
2024/04/12 07:45:37;;;;;;;11.57;6.28;;;;;;;;;;5527258;25;20002;-60
2024/04/12 07:48:22;;;;;;;15.85;6.03;;;;;;;;;;5544135;25;20007;-59
2024/04/12 07:50:54;;;;;;;10.05;5.90;;;;;;;;;;5543391;25;19997;-60
2024/04/12 07:53:23;;;;;;;9.50;5.65;;;;;;;;;;5527974;25;20025;-60
2024/04/12 07:55:55;;;;;;;10.85;5.22;;;;;;;;;;5524960;25;20449;-60
2024/04/12 07:58:26;;;;;;;9.70;4.95;;;;;;;;;;5540787;25;19993;-59
2024/04/12 08:00:57;;;;;;;9.80;5.15;;;;;;;;;;5536868;25;20463;-64
2024/04/12 08:03:26;;;;;;;7.53;4.97;;;;;;;;;;5557237;25;20023;-58
2024/04/12 08:06:03;;;;;;;9.02;4.97;;;;;;;;;;5549889;25;20009;-58
2024/04/12 08:08:44;;;;;;;10.95;6.10;;;;;;;;;;5524452;25;20005;-59
2024/04/12 08:14:05;;;;;;;13.15;6.57;;;;;;;;;;5546085;25;20057;-58
2024/04/12 08:16:35;;;;;;;14.77;5.70;;;;;;;;;;5535230;25;20364;-59
2024/04/12 08:19:02;;;;;;;9.55;5.45;;;;;;;;;;5535936;25;20069;-58
2024/04/12 08:21:31;;;;;;;10.68;5.47;;;;;;;;;;5524366;25;20001;-59
2024/04/12 08:23:57;;;;;;;13.13;6.82;;;;;;;;;;5523193;25;20008;-58
2024/04/12 08:26:27;;;;;;;11.27;6.10;;;;;;;;;;5532993;25;20419;-59
2024/04/12 08:28:53;;;;;;;12.07;6.32;;;;;;;;;;5523797;25;19998;-59
2024/04/12 08:31:23;;;;;;;11.65;6.00;;;;;;;;;;5525568;25;20377;-59
2024/04/12 08:33:52;;;;;;;10.90;6.15;;;;;;;;;;5523307;25;20313;-59
2024/04/12 08:36:18;;;;;;;11.40;5.90;;;;;;;;;;5534531;25;20025;-59
2024/04/12 08:39:12;;;;;;;13.20;7.22;;;;;;;;;;5533719;25;20393;-59
2024/04/12 08:41:38;;;;;;;17.40;6.80;;;;;;;;;;5542725;25;20004;-59
2024/04/12 08:44:09;;;;;;;14.57;6.78;;;;;;;;;;5552198;25;19996;-58
2024/04/12 08:46:35;;;;;;;14.02;7.25;;;;;;;;;;5528367;25;19993;-58
2024/04/12 08:49:13;;;;;;;11.38;6.65;;;;;;;;;;5541689;25;19992;-60
2024/04/12 08:51:40;;;;;;;15.57;6.63;;;;;;;;;;5532283;25;20030;-61
2024/04/12 08:54:06;;;;;;;13.18;5.97;;;;;;;;;;5523014;25;20067;-60
2024/04/12 08:56:33;;;;;;;12.25;6.10;;;;;;;;;;5529133;25;20383;-62
2024/04/12 08:59:05;;;;;;;11.70;5.80;;;;;;;;;;5523923;25;20073;-60
2024/04/12 09:01:33;;;;;;;10.85;5.40;;;;;;;;;;5524848;25;20446;-60
2024/04/12 09:04:04;;;;;;;11.25;6.28;;;;;;;;;;5526544;25;20360;-60
2024/04/12 09:06:35;;;;;;;10.70;5.50;;;;;;;;;;5526956;25;20005;-60
2024/04/12 09:09:01;;;;;;;14.93;5.82;;;;;;;;;;5526888;25;20025;-58
2024/04/12 09:11:27;;;;;;;14.70;5.68;;;;;;;;;;5556147;25;20012;-59
2024/04/12 09:13:53;;;;;;;15.48;5.85;;;;;;;;;;5540836;25;20002;-58
2024/04/12 09:16:19;;;;;;;11.32;6.07;;;;;;;;;;5526695;26;19993;-58
2024/04/12 09:18:46;;;;;;;13.00;5.40;;;;;;;;;;5527050;25;20005;-58
2024/04/12 09:21:24;;;;;;;8.90;5.43;;;;;;;;;;5528356;25;20473;-58
2024/04/12 09:23:50;;;;;;;8.63;4.95;;;;;;;;;;5550941;25;20436;-58
2024/04/12 09:26:24;;;;;;;13.25;5.53;;;;;;;;;;5526323;25;20009;-58
2024/04/12 09:28:51;;;;;;;9.20;5.40;;;;;;;;;;5529290;25;20407;-59
2024/04/12 09:37:01;;;;;;;10.32;5.22;;;;;;;;;;5525964;25;20629;-59
2024/04/12 09:39:57;;;;;;;13.48;5.82;;;;;;;;;;5559259;25;20034;-58
2024/04/12 09:42:19;;;;;;;14.13;5.60;;;;;;;;;;5539615;25;20326;-58
2024/04/12 09:44:48;;;;;;;12.95;6.03;;;;;;;;;;5536646;25;20439;-58
2024/04/12 10:37:28;;;;;;;7.38;3.20;;;;;;;;;;5528253;25;20011;-57
2024/04/12 10:39:55;;;;;;;7.40;4.00;;;;;;;;;;5544572;25;19997;-58
2024/04/12 10:42:30;;;;;;;10.45;3.95;;;;;;;;;;5548939;25;20072;-58
2024/04/12 10:44:58;;;;;;;7.80;3.28;;;;;;;;;;5550861;25;19997;-58
2024/04/12 10:47:24;;;;;;;5.75;3.20;;;;;;;;;;5542525;25;20408;-57
2024/04/12 10:49:51;;;;;;;7.18;3.50;;;;;;;;;;5559282;25;19997;-58
2024/04/12 10:52:28;;;;;;;7.45;3.58;;;;;;;;;;5539784;25;19996;-57
2024/04/12 10:54:54;;;;;;;7.88;3.15;;;;;;;;;;5557518;25;20005;-58
2024/04/12 10:57:22;;;;;;;6.93;3.25;;;;;;;;;;5534907;25;20001;-58
2024/04/12 10:59:51;;;;;;;7.07;3.80;;;;;;;;;;5551885;25;20066;-57
2024/04/12 11:02:17;;;;;;;6.55;3.60;;;;;;;;;;5543662;25;20016;-57
2024/04/12 11:07:27;;;;;;;5.47;3.20;;;;;;;;;;5526842;25;20042;-57
2024/04/12 11:10:03;;;;;;;6.90;3.58;;;;;;;;;;5545949;25;20000;-58
2024/04/12 11:12:29;;;;;;;7.93;4.68;;;;;;;;;;5547609;25;20041;-59
2024/04/12 11:31:28;;;;;;;7.78;3.10;;;;;;;;;;5532388;25;20024;-62
2024/04/12 11:33:54;;;;;;;4.40;2.50;;;;;;;;;;5549906;25;20728;-63
2024/04/12 11:36:21;;;;;;;5.68;2.40;;;;;;;;;;5561936;25;19996;-63
2024/04/12 11:38:48;;;;;;;5.18;2.13;;;;;;;;;;5561956;25;20005;-63
2024/04/12 11:41:15;;;;;;;5.90;2.53;;;;;;;;;;5557763;25;20075;-63
2024/04/12 11:43:45;;;;;;;5.78;1.98;;;;;;;;;;5554485;25;20012;-62
2024/04/12 11:46:13;;;;;;;4.00;1.98;;;;;;;;;;5528153;25;19993;-62
2024/04/12 11:48:42;;;;;;;3.53;1.90;;;;;;;;;;5545516;25;20005;-63
2024/04/12 11:51:08;;;;;;;5.25;1.90;;;;;;;;;;5547135;25;20012;-63
2024/04/12 11:53:35;;;;;;;6.43;1.58;;;;;;;;;;5537967;25;19997;-63
2024/04/12 11:56:01;;;;;;;3.38;1.90;;;;;;;;;;5534283;25;20009;-62
2024/04/12 11:58:28;;;;;;;4.75;1.88;;;;;;;;;;5554197;25;19996;-62
2024/04/12 12:00:54;;;;;;;4.90;1.90;;;;;;;;;;5544580;25;20550;-62
2024/04/12 12:03:20;;;;;;;2.20;1.58;;;;;;;;;;5545596;25;20011;-63
2024/04/12 12:05:52;;;;;;;3.00;1.60;;;;;;;;;;5542420;25;20001;-63
2024/04/12 12:08:25;;;;;;;3.13;1.50;;;;;;;;;;5537548;25;20000;-63
2024/04/12 12:10:51;;;;;;;1.70;1.15;;;;;;;;;;5548852;25;19998;-63
2024/04/12 12:13:17;;;;;;;4.85;1.60;;;;;;;;;;5552398;25;20529;-63
2024/04/12 12:15:43;;;;;;;4.53;1.38;;;;;;;;;;5552468;25;20005;-61
2024/04/12 12:18:09;;;;;;;5.75;1.27;;;;;;;;;;5541101;25;19993;-60
2024/04/12 12:20:35;;;;;;;3.47;1.42;;;;;;;;;;5540128;25;20429;-62
2024/04/12 12:23:01;;;;;;;3.15;1.25;;;;;;;;;;5558279;25;20459;-60
2024/04/12 12:25:27;;;;;;;3.35;1.30;;;;;;;;;;5550858;25;20040;-62
2024/04/12 12:27:54;;;;;;;5.63;1.52;;;;;;;;;;5533012;25;20037;-60
2024/04/12 12:30:23;;;;;;;3.55;1.65;;;;;;;;;;5551706;25;20012;-64
2024/04/12 12:32:49;;;;;;;3.65;1.52;;;;;;;;;;5555810;25;20004;-61
2024/04/12 12:35:24;;;;;;;5.75;1.25;;;;;;;;;;5544688;25;20054;-61
2024/04/12 12:37:51;;;;;;;3.72;1.33;;;;;;;;;;5544922;25;20444;-56
2024/04/12 12:40:18;;;;;;;5.50;1.63;;;;;;;;;;5543983;25;20037;-59
2024/04/12 12:42:48;;;;;;;3.70;1.10;;;;;;;;;;5531727;25;19994;-59
2024/04/12 12:45:15;;;;;;;3.10;1.30;;;;;;;;;;5536542;25;20001;-57
2024/04/12 12:47:41;;;;;;;2.55;1.15;;;;;;;;;;5533543;25;20009;-57
2024/04/12 12:50:18;;;;;;;4.50;1.55;;;;;;;;;;5536738;25;20029;-56
2024/04/12 12:52:49;;;;;;;3.60;1.27;;;;;;;;;;5530145;25;20002;-56
2024/04/12 12:55:15;;;;;;;1.80;1.17;;;;;;;;;;5533347;25;20004;-57
2024/04/12 12:57:44;;;;;;;4.00;1.10;;;;;;;;;;5540736;25;20009;-59
2024/04/12 13:00:18;;;;;;;6.43;1.20;;;;;;;;;;5554165;25;20058;-59
2024/04/12 13:02:44;;;;;;;3.80;1.48;;;;;;;;;;5521495;25;20513;-59
2024/04/12 13:05:14;;;;;;;2.83;1.15;;;;;;;;;;5532085;25;20000;-59
2024/04/12 13:07:40;;;;;;;14.60;1.20;;;;;;;;;;5540095;25;20077;-57
2024/04/12 13:10:12;;;;;;;3.63;1.25;;;;;;;;;;5548816;25;20449;-59
2024/04/12 13:12:38;;;;;;;2.75;1.27;;;;;;;;;;5551418;25;20004;-58
2024/04/12 13:15:11;;;;;;;3.67;1.25;;;;;;;;;;5558817;25;20420;-59
2024/04/12 13:17:37;;;;;;;7.05;1.30;;;;;;;;;;5559944;25;20068;-58
2024/04/12 13:20:06;;;;;;;3.85;1.30;;;;;;;;;;5544305;25;20021;-58
2024/04/12 13:22:32;;;;;;;3.63;1.00;;;;;;;;;;5534331;25;20443;-58
2024/04/12 13:24:58;;;;;;;3.10;1.30;;;;;;;;;;5557363;25;20013;-58
2024/04/12 13:27:27;;;;;;;3.75;1.02;;;;;;;;;;5549098;25;20462;-59
2024/04/12 13:29:53;;;;;;;4.43;1.48;;;;;;;;;;5547889;25;19997;-58
2024/04/12 13:32:19;;;;;;;2.70;1.20;;;;;;;;;;5539060;25;20005;-60
2024/04/12 13:34:46;;;;;;;3.90;1.40;;;;;;;;;;5559785;25;20008;-58
2024/04/12 13:37:14;;;;;;;5.32;1.75;;;;;;;;;;5559780;25;20011;-59
2024/04/12 13:39:40;;;;;;;4.38;1.48;;;;;;;;;;5526933;25;20013;-58
2024/04/12 13:42:10;;;;;;;4.13;1.42;;;;;;;;;;5546234;25;20011;-58
2024/04/12 13:52:52;;;;;;;4.03;1.08;;;;;;;;;;5541359;25;20012;-59
2024/04/12 13:55:20;;;;;;;2.50;1.10;;;;;;;;;;5557997;25;20028;-60
2024/04/12 13:57:47;;;;;;;2.67;1.23;;;;;;;;;;5558522;25;20001;-60
2024/04/12 14:00:26;;;;;;;6.55;1.40;;;;;;;;;;5563564;25;20012;-59
2024/04/12 14:02:54;;;;;;;2.75;1.00;;;;;;;;;;5560770;25;20019;-60
2024/04/12 14:05:20;;;;;;;2.92;1.15;;;;;;;;;;5534368;25;20533;-60
2024/04/12 14:07:49;;;;;;;2.88;1.15;;;;;;;;;;5539458;25;20000;-59
2024/04/12 14:10:20;;;;;;;1.77;1.00;;;;;;;;;;5542807;25;19998;-61
2024/04/12 14:12:46;;;;;;;3.80;1.13;;;;;;;;;;5527374;25;20421;-60
2024/04/12 14:15:12;;;;;;;3.70;1.38;;;;;;;;;;5532746;25;20009;-61
2024/04/12 14:17:39;;;;;;;2.17;1.13;;;;;;;;;;5545747;25;20044;-60
2024/04/12 14:20:11;;;;;;;2.15;1.40;;;;;;;;;;5553321;25;20469;-60
2024/04/12 14:22:37;;;;;;;3.88;1.17;;;;;;;;;;5559895;25;20085;-60
2024/04/12 14:25:04;;;;;;;5.32;1.08;;;;;;;;;;5559626;25;20417;-61
2024/04/12 14:27:30;;;;;;;3.30;1.13;;;;;;;;;;5540546;25;20058;-60
2024/04/12 14:29:56;;;;;;;3.33;1.27;;;;;;;;;;5552816;25;20459;-60
2024/04/12 14:32:22;;;;;;;4.53;1.00;;;;;;;;;;5547451;25;19997;-60
2024/04/12 14:34:51;;;;;;;4.20;1.33;;;;;;;;;;5547942;25;20372;-60
2024/04/12 14:37:21;;;;;;;3.17;1.08;;;;;;;;;;5545367;25;20013;-60
2024/04/12 14:39:47;;;;;;;4.63;1.15;;;;;;;;;;5534400;25;20468;-60
2024/04/12 14:42:17;;;;;;;1.73;1.00;;;;;;;;;;5549150;25;20012;-61
2024/04/12 14:44:43;;;;;;;6.00;1.23;;;;;;;;;;5533344;25;20006;-60
2024/04/12 14:47:13;;;;;;;5.88;0.98;;;;;;;;;;5560851;25;19993;-60
2024/04/12 14:49:41;;;;;;;7.32;1.23;;;;;;;;;;5541401;25;20005;-60
2024/04/12 14:52:13;;;;;;;7.10;1.40;;;;;;;;;;5535532;25;20042;-59
2024/04/12 14:54:39;;;;;;;3.72;1.20;;;;;;;;;;5543841;25;20005;-61
2024/04/12 14:57:06;;;;;;;3.83;1.27;;;;;;;;;;5542717;25;19999;-60
2024/04/12 14:59:34;;;;;;;3.20;0.80;;;;;;;;;;5540852;25;20362;-62
2024/04/12 15:02:02;;;;;;;4.55;1.10;;;;;;;;;;5553180;25;20362;-62
2024/04/12 15:48:25;;;;;;;4.13;1.10;;;;;;;;;;5541705;25;20042;-61
2024/04/12 15:50:54;;;;;;;2.45;1.05;;;;;;;;;;5545932;25;19993;-61
2024/04/12 15:53:25;;;;;;;2.28;1.10;;;;;;;;;;5538642;25;19996;-61
2024/04/12 16:10:44;;;;;;;4.55;1.35;;;;;;;;;;5539101;25;19996;-61
2024/04/12 16:12:47;;;;;;;8.35;1.70;;;;;;;;;;5468729;26;20068;-59
2024/04/12 16:15:13;;;;;;;4.47;1.70;;;;;;;;;;5497908;25;19997;-59
2024/04/12 16:17:41;;;;;;;2.65;1.17;;;;;;;;;;5536000;25;20282;-60
2024/04/12 16:20:07;;;;;;;3.60;1.50;;;;;;;;;;5560902;25;20004;-58
2024/04/12 16:22:33;;;;;;;3.25;1.50;;;;;;;;;;5559282;25;19997;-59
2024/04/12 16:24:59;;;;;;;7.35;2.13;;;;;;;;;;5540383;25;20371;-59
2024/04/12 16:27:25;;;;;;;2.88;2.28;;;;;;;;;;5535617;25;20023;-60
2024/04/12 16:29:51;;;;;;;3.30;2.10;;;;;;;;;;5561249;25;19993;-60
2024/04/12 16:32:18;;;;;;;7.57;2.40;;;;;;;;;;5547923;25;20441;-59
2024/04/12 16:34:45;;;;;;;3.90;2.10;;;;;;;;;;5561248;25;20033;-59
2024/04/12 16:37:13;;;;;;;2.78;2.13;;;;;;;;;;5535111;25;20096;-59
2024/04/12 16:39:39;;;;;;;3.40;2.28;;;;;;;;;;5537347;25;20001;-60
2024/04/12 16:42:06;;;;;;;4.40;2.60;;;;;;;;;;5534697;25;20310;-60
2024/04/12 16:44:32;;;;;;;5.90;2.40;;;;;;;;;;5542830;25;20006;-60
2024/04/12 16:46:58;;;;;;;6.25;2.67;;;;;;;;;;5561213;25;20094;-59
2024/04/12 16:49:26;;;;;;;3.40;2.20;;;;;;;;;;5560611;25;20040;-60
2024/04/12 16:51:54;;;;;;;3.03;2.10;;;;;;;;;;5546436;25;20391;-60
2024/04/12 16:54:20;;;;;;;4.90;2.35;;;;;;;;;;5530120;25;20015;-59
2024/04/12 16:56:46;;;;;;;5.28;2.80;;;;;;;;;;5542888;25;19997;-60
2024/04/12 16:59:12;;;;;;;5.95;2.13;;;;;;;;;;5531033;25;20008;-60
2024/04/12 17:01:38;;;;;;;3.90;2.35;;;;;;;;;;5557103;25;19992;-59
2024/04/12 17:04:04;;;;;;;6.30;2.38;;;;;;;;;;5533970;25;20001;-60
2024/04/12 17:06:30;;;;;;;3.28;2.00;;;;;;;;;;5548535;25;20004;-60
2024/04/12 17:08:57;;;;;;;2.63;2.00;;;;;;;;;;5545886;25;20021;-60
2024/04/12 17:11:25;;;;;;;6.00;2.17;;;;;;;;;;5545007;25;20005;-60
2024/04/12 17:13:52;;;;;;;4.50;2.00;;;;;;;;;;5548145;25;20015;-59
2024/04/12 17:16:17;;;;;;;5.80;1.98;;;;;;;;;;5551760;25;19998;-60